Joy — V2EI9 — position and weather

sailwx.info

Track history (hours):
 
Tides and Currents Weather Stations Pressure Air Temp Water Temp Dewpoint Dewpoint Depression Visibility Wind Speed Wind Dir Waves Ship Positions

Joy

Last reported at 2016-Nov-29 08:33 UTC. Time now 2016-Dec-07 18:18 UTC.
Position N 47°28' W 005°06'.
Warning: this ship's position is 8 days out of date.

; draft 6 m.

Type: Cargo ship. MMSI: 305444000.

Date/timePositionNaut miles runAvg speedWind from/ knotsBaromVisibWave heightAir tempDewpointWater temp
2016-Nov-29 08:33N 47°28' W 005°06'10 9.5
2016-Nov-29 07:32N 47°37' W 005°09'9 9.0
2016-Nov-29 06:30N 47°46' W 005°12'9 9.2
2016-Nov-29 05:32N 47°55' W 005°12'12 9.0
2016-Nov-29 04:10N 48°07' W 005°17'113 6.4
2016-Nov-28 10:33N 49°41' W 003°41'1110.0
2016-Nov-28 09:29N 49°47' W 003°27'9 9.4
2016-Nov-28 08:33N 49°51' W 003°15'9 8.7
2016-Nov-28 07:33N 49°56' W 003°04'8 8.1
2016-Nov-28 06:33N 49°60' W 002°53'10010.1
2016-Nov-27 20:33N 50°27' W 000°22'8 7.9
2016-Nov-27 19:31N 50°30' W 000°09'8 8.1
2016-Nov-27 18:33N 50°32' E 000°02'9 8.6
2016-Nov-27 17:33N 50°34' E 000°15'4110.3
2016-Nov-27 13:33N 50°56' E 001°11'9 9.4
2016-Nov-27 12:33N 51°01' E 001°22'8 8.3
2016-Nov-27 11:33N 51°07' E 001°33'8 8.0
2016-Nov-27 10:33N 51°12' E 001°43'9 8.8
2016-Nov-27 09:33N 51°19' E 001°50'1010.2
2016-Nov-27 08:33N 51°28' E 001°59'1111.3
2016-Nov-27 07:33N 51°36' E 002°10'1411.5
2016-Nov-27 06:22N 51°47' E 002°25'46 9.3
2016-Nov-27 01:28N 52°03' E 003°34'8 8.5
2016-Nov-27 00:33N 52°03' E 003°46'8 8.5
2016-Nov-26 23:33N 52°01' E 003°60'10 9.9
2016-Nov-26 22:33N 51°56' E 004°13'9 9.3
2016-Nov-26 21:33N 51°50' E 004°26'8 8.2
2016-Nov-26 20:34N 51°48' E 004°38'0 0.4
2016-Nov-26 19:33N 51°48' E 004°39'0 0.0
2016-Nov-26 18:33N 51°48' E 004°39'0 0.0
2016-Nov-26 17:33N 51°48' E 004°39'0 0.0
2016-Nov-26 16:33N 51°48' E 004°39'0 0.0
2016-Nov-26 15:33N 51°48' E 004°39'0 0.0
2016-Nov-26 14:33N 51°48' E 004°39'0 0.0
2016-Nov-26 13:34N 51°48' E 004°39'0 0.0
2016-Nov-26 12:34N 51°48' E 004°39'0 0.0
2016-Nov-26 11:34N 51°48' E 004°39'0 0.0
2016-Nov-26 10:34N 51°48' E 004°39'0 0.0
2016-Nov-26 09:33N 51°48' E 004°39'0 0.0
2016-Nov-26 08:33N 51°48' E 004°39'0 0.0
2016-Nov-26 07:33N 51°48' E 004°39'0 0.0
2016-Nov-26 06:33N 51°48' E 004°39'0 0.0
2016-Nov-26 05:34N 51°48' E 004°39'0 0.0
2016-Nov-26 04:34N 51°48' E 004°39'0 0.0
2016-Nov-26 03:34N 51°48' E 004°39'0 0.0
2016-Nov-26 02:33N 51°48' E 004°39'0 0.0
2016-Nov-26 01:33N 51°48' E 004°39'0 0.0
2016-Nov-26 00:33N 51°48' E 004°39'0 0.0
2016-Nov-25 23:33N 51°48' E 004°39'0 0.0
2016-Nov-25 22:34N 51°48' E 004°39'0 0.2
2016-Nov-25 21:34N 51°48' E 004°38'6 5.9
2016-Nov-25 20:33N 51°50' E 004°30'8 7.7
2016-Nov-25 19:33N 51°54' E 004°19'6 5.6
2016-Nov-25 18:33N 51°57' E 004°11'8 8.3
2016-Nov-25 17:33N 51°60' E 003°59'8 7.5
2016-Nov-25 16:33N 52°02' E 003°47'1211.3
2016-Nov-25 15:28N 52°14' E 003°46'1011.1
2016-Nov-25 14:33N 52°24' E 003°49'1010.0
2016-Nov-25 13:33N 52°31' E 004°00'1111.0
2016-Nov-25 12:33N 52°31' E 004°18'10 9.7
2016-Nov-25 11:33N 52°28' E 004°34'4 4.5
2016-Nov-25 10:34N 52°27' E 004°41'6 6.3
2016-Nov-25 09:33N 52°24' E 004°49'0 0.0
2016-Nov-25 08:33N 52°24' E 004°49'0 0.0
2016-Nov-25 07:32N 52°24' E 004°49'0 0.0
2016-Nov-25 06:32N 52°24' E 004°49'0 0.0
2016-Nov-25 05:32N 52°24' E 004°49'0 0.0
2016-Nov-25 04:32N 52°24' E 004°49'0 0.0
2016-Nov-25 03:32N 52°24' E 004°49'0 0.0
2016-Nov-25 02:32N 52°24' E 004°49'0 0.0
2016-Nov-25 01:32N 52°24' E 004°49'0 0.0
2016-Nov-25 00:32N 52°24' E 004°49'0 0.0
2016-Nov-24 23:32N 52°24' E 004°49'0 0.0
2016-Nov-24 22:32N 52°24' E 004°49'0 0.0
2016-Nov-24 21:32N 52°24' E 004°49'0 0.0
2016-Nov-24 20:32N 52°24' E 004°49'0 0.0
2016-Nov-24 19:32N 52°24' E 004°49'0 0.0
2016-Nov-24 18:32N 52°24' E 004°49'0 0.0
2016-Nov-24 17:32N 52°24' E 004°49'0 0.0
2016-Nov-24 16:32N 52°24' E 004°49'0 0.0
2016-Nov-24 15:32N 52°24' E 004°49'0 0.0
2016-Nov-24 14:32N 52°24' E 004°49'0 0.0
2016-Nov-24 13:32N 52°24' E 004°49'0 0.0
2016-Nov-24 12:32N 52°24' E 004°49'0 0.0
2016-Nov-24 11:32N 52°24' E 004°49'0 0.0
2016-Nov-24 10:32N 52°24' E 004°49'0 0.0
2016-Nov-24 09:32N 52°24' E 004°49'0 0.0
2016-Nov-24 08:32N 52°24' E 004°49'0 0.0
2016-Nov-24 07:32N 52°24' E 004°49'0 0.0
2016-Nov-24 06:32N 52°24' E 004°49'0 0.0
2016-Nov-24 05:32N 52°24' E 004°49'0 0.0
2016-Nov-24 04:32N 52°24' E 004°49'0 0.0
2016-Nov-24 03:32N 52°24' E 004°49'0 0.0
2016-Nov-24 02:32N 52°24' E 004°49'0 0.0
2016-Nov-24 01:32N 52°24' E 004°49'0 0.0
2016-Nov-24 00:32N 52°24' E 004°49'0 0.0
2016-Nov-23 23:32N 52°24' E 004°49'0 0.0
2016-Nov-23 22:32N 52°24' E 004°49'0 0.0
2016-Nov-23 21:32N 52°24' E 004°49'0 0.0
2016-Nov-23 20:32N 52°24' E 004°49'0 0.0
2016-Nov-23 19:28N 52°24' E 004°49'0 0.0
2016-Nov-23 18:31N 52°24' E 004°49'0 0.0
2016-Nov-23 17:31N 52°24' E 004°49'0 0.0
2016-Nov-23 16:31N 52°24' E 004°49'0 0.0
2016-Nov-23 15:31N 52°24' E 004°49'0 0.0
2016-Nov-23 14:31N 52°24' E 004°49'0 0.0
2016-Nov-23 13:31N 52°24' E 004°49'0 0.0
2016-Nov-23 12:31N 52°24' E 004°49'0 0.0
2016-Nov-23 11:31N 52°24' E 004°49'0 0.0
2016-Nov-23 10:31N 52°24' E 004°49'0 0.0
2016-Nov-23 09:31N 52°24' E 004°49'2 1.7
2016-Nov-23 08:33N 52°25' E 004°49'8 8.0
2016-Nov-23 07:33N 52°28' E 004°36'5 4.6
2016-Nov-23 06:33N 52°28' E 004°29'15 5.1
2016-Nov-23 03:33N 52°34' E 004°05'62 5.7
2016-Nov-22 16:33N 53°31' E 004°50'6 5.9
2016-Nov-22 15:33N 53°33' E 004°59'6 5.7
2016-Nov-22 14:32N 53°35' E 005°08'6 5.8
2016-Nov-22 13:33N 53°36' E 005°17'16 5.4
2016-Nov-22 10:34N 53°42' E 005°43'6 6.1
2016-Nov-22 09:34N 53°44' E 005°52'7 6.8
2016-Nov-22 08:32N 53°46' E 006°03'65 7.2
2016-Nov-21 23:28N 54°01' E 007°51'16 8.5
2016-Nov-21 21:32N 53°60' E 008°19'31 7.9
2016-Nov-21 17:33N 53°56' E 009°12'23 7.5
2016-Nov-21 14:31N 54°13' E 009°36'7 7.4
2016-Nov-21 13:32N 54°19' E 009°43'7 7.4
2016-Nov-21 12:34N 54°21' E 009°55'7 7.5
2016-Nov-21 11:34N 54°22' E 010°08'1 0.9
2016-Nov-21 10:34N 54°22' E 010°09'17 8.5
2016-Nov-21 08:33N 54°33' E 010°31'10 9.9
2016-Nov-21 07:34N 54°35' E 010°48'18 9.2
2016-Nov-21 05:34N 54°34' E 011°19'9 9.1
2016-Nov-21 04:33N 54°30' E 011°34'18 8.9
2016-Nov-21 02:33N 54°26' E 012°04'68 7.5
2016-Nov-20 17:33N 54°43' E 013°57'9 8.9
2016-Nov-20 16:32N 54°40' E 014°13'20 9.1
2016-Nov-20 14:22N 54°39' E 014°47'8 9.1
2016-Nov-20 13:27N 54°41' E 015°01'  
Track history (hours):
 
Tides and Currents Weather Stations Pressure Air Temp Water Temp Dewpoint Dewpoint Depression Visibility Wind Speed Wind Dir Waves Ship Positions

Joy

Last reported at 2016-Nov-29 08:33 UTC. Time now 2016-Dec-07 18:18 UTC.
Position N 47°28' W 005°06'.
Warning: this ship's position is 8 days out of date.

; draft 6 m.

Type: Cargo ship. MMSI: 305444000.

Date/timePositionNaut miles runAvg speedWind from/ knotsBaromVisibWave heightAir tempDewpointWater temp
2016-Nov-29 08:33N 47°28' W 005°06'10 9.5
2016-Nov-29 07:32N 47°37' W 005°09'9 9.0
2016-Nov-29 06:30N 47°46' W 005°12'9 9.2
2016-Nov-29 05:32N 47°55' W 005°12'12 9.0
2016-Nov-29 04:10N 48°07' W 005°17'113 6.4
2016-Nov-28 10:33N 49°41' W 003°41'1110.0
2016-Nov-28 09:29N 49°47' W 003°27'9 9.4
2016-Nov-28 08:33N 49°51' W 003°15'9 8.7
2016-Nov-28 07:33N 49°56' W 003°04'8 8.1
2016-Nov-28 06:33N 49°60' W 002°53'10010.1
2016-Nov-27 20:33N 50°27' W 000°22'8 7.9
2016-Nov-27 19:31N 50°30' W 000°09'8 8.1
2016-Nov-27 18:33N 50°32' E 000°02'9 8.6
2016-Nov-27 17:33N 50°34' E 000°15'4110.3
2016-Nov-27 13:33N 50°56' E 001°11'9 9.4
2016-Nov-27 12:33N 51°01' E 001°22'8 8.3
2016-Nov-27 11:33N 51°07' E 001°33'8 8.0
2016-Nov-27 10:33N 51°12' E 001°43'9 8.8
2016-Nov-27 09:33N 51°19' E 001°50'1010.2
2016-Nov-27 08:33N 51°28' E 001°59'1111.3
2016-Nov-27 07:33N 51°36' E 002°10'1411.5
2016-Nov-27 06:22N 51°47' E 002°25'46 9.3
2016-Nov-27 01:28N 52°03' E 003°34'8 8.5
2016-Nov-27 00:33N 52°03' E 003°46'8 8.5
2016-Nov-26 23:33N 52°01' E 003°60'10 9.9
2016-Nov-26 22:33N 51°56' E 004°13'9 9.3
2016-Nov-26 21:33N 51°50' E 004°26'8 8.2
2016-Nov-26 20:34N 51°48' E 004°38'0 0.4
2016-Nov-26 19:33N 51°48' E 004°39'0 0.0
2016-Nov-26 18:33N 51°48' E 004°39'0 0.0
2016-Nov-26 17:33N 51°48' E 004°39'0 0.0
2016-Nov-26 16:33N 51°48' E 004°39'0 0.0
2016-Nov-26 15:33N 51°48' E 004°39'0 0.0
2016-Nov-26 14:33N 51°48' E 004°39'0 0.0
2016-Nov-26 13:34N 51°48' E 004°39'0 0.0
2016-Nov-26 12:34N 51°48' E 004°39'0 0.0
2016-Nov-26 11:34N 51°48' E 004°39'0 0.0
2016-Nov-26 10:34N 51°48' E 004°39'0 0.0
2016-Nov-26 09:33N 51°48' E 004°39'0 0.0
2016-Nov-26 08:33N 51°48' E 004°39'0 0.0
2016-Nov-26 07:33N 51°48' E 004°39'0 0.0
2016-Nov-26 06:33N 51°48' E 004°39'0 0.0
2016-Nov-26 05:34N 51°48' E 004°39'0 0.0
2016-Nov-26 04:34N 51°48' E 004°39'0 0.0
2016-Nov-26 03:34N 51°48' E 004°39'0 0.0
2016-Nov-26 02:33N 51°48' E 004°39'0 0.0
2016-Nov-26 01:33N 51°48' E 004°39'0 0.0
2016-Nov-26 00:33N 51°48' E 004°39'0 0.0
2016-Nov-25 23:33N 51°48' E 004°39'0 0.0
2016-Nov-25 22:34N 51°48' E 004°39'0 0.2
2016-Nov-25 21:34N 51°48' E 004°38'6 5.9
2016-Nov-25 20:33N 51°50' E 004°30'8 7.7
2016-Nov-25 19:33N 51°54' E 004°19'6 5.6
2016-Nov-25 18:33N 51°57' E 004°11'8 8.3
2016-Nov-25 17:33N 51°60' E 003°59'8 7.5
2016-Nov-25 16:33N 52°02' E 003°47'1211.3
2016-Nov-25 15:28N 52°14' E 003°46'1011.1
2016-Nov-25 14:33N 52°24' E 003°49'1010.0
2016-Nov-25 13:33N 52°31' E 004°00'1111.0
2016-Nov-25 12:33N 52°31' E 004°18'10 9.7
2016-Nov-25 11:33N 52°28' E 004°34'4 4.5
2016-Nov-25 10:34N 52°27' E 004°41'6 6.3
2016-Nov-25 09:33N 52°24' E 004°49'0 0.0
2016-Nov-25 08:33N 52°24' E 004°49'0 0.0
2016-Nov-25 07:32N 52°24' E 004°49'0 0.0
2016-Nov-25 06:32N 52°24' E 004°49'0 0.0
2016-Nov-25 05:32N 52°24' E 004°49'0 0.0
2016-Nov-25 04:32N 52°24' E 004°49'0 0.0
2016-Nov-25 03:32N 52°24' E 004°49'0 0.0
2016-Nov-25 02:32N 52°24' E 004°49'0 0.0
2016-Nov-25 01:32N 52°24' E 004°49'0 0.0
2016-Nov-25 00:32N 52°24' E 004°49'0 0.0
2016-Nov-24 23:32N 52°24' E 004°49'0 0.0
2016-Nov-24 22:32N 52°24' E 004°49'0 0.0
2016-Nov-24 21:32N 52°24' E 004°49'0 0.0
2016-Nov-24 20:32N 52°24' E 004°49'0 0.0
2016-Nov-24 19:32N 52°24' E 004°49'0 0.0
2016-Nov-24 18:32N 52°24' E 004°49'0 0.0
2016-Nov-24 17:32N 52°24' E 004°49'0 0.0
2016-Nov-24 16:32N 52°24' E 004°49'0 0.0
2016-Nov-24 15:32N 52°24' E 004°49'0 0.0
2016-Nov-24 14:32N 52°24' E 004°49'0 0.0
2016-Nov-24 13:32N 52°24' E 004°49'0 0.0
2016-Nov-24 12:32N 52°24' E 004°49'0 0.0
2016-Nov-24 11:32N 52°24' E 004°49'0 0.0
2016-Nov-24 10:32N 52°24' E 004°49'0 0.0
2016-Nov-24 09:32N 52°24' E 004°49'0 0.0
2016-Nov-24 08:32N 52°24' E 004°49'0 0.0
2016-Nov-24 07:32N 52°24' E 004°49'0 0.0
2016-Nov-24 06:32N 52°24' E 004°49'0 0.0
2016-Nov-24 05:32N 52°24' E 004°49'0 0.0
2016-Nov-24 04:32N 52°24' E 004°49'0 0.0
2016-Nov-24 03:32N 52°24' E 004°49'0 0.0
2016-Nov-24 02:32N 52°24' E 004°49'0 0.0
2016-Nov-24 01:32N 52°24' E 004°49'0 0.0
2016-Nov-24 00:32N 52°24' E 004°49'0 0.0
2016-Nov-23 23:32N 52°24' E 004°49'0 0.0
2016-Nov-23 22:32N 52°24' E 004°49'0 0.0
2016-Nov-23 21:32N 52°24' E 004°49'0 0.0
2016-Nov-23 20:32N 52°24' E 004°49'0 0.0
2016-Nov-23 19:28N 52°24' E 004°49'0 0.0
2016-Nov-23 18:31N 52°24' E 004°49'0 0.0
2016-Nov-23 17:31N 52°24' E 004°49'0 0.0
2016-Nov-23 16:31N 52°24' E 004°49'0 0.0
2016-Nov-23 15:31N 52°24' E 004°49'0 0.0
2016-Nov-23 14:31N 52°24' E 004°49'0 0.0
2016-Nov-23 13:31N 52°24' E 004°49'0 0.0
2016-Nov-23 12:31N 52°24' E 004°49'0 0.0
2016-Nov-23 11:31N 52°24' E 004°49'0 0.0
2016-Nov-23 10:31N 52°24' E 004°49'0 0.0
2016-Nov-23 09:31N 52°24' E 004°49'2 1.7
2016-Nov-23 08:33N 52°25' E 004°49'8 8.0
2016-Nov-23 07:33N 52°28' E 004°36'5 4.6
2016-Nov-23 06:33N 52°28' E 004°29'15 5.1
2016-Nov-23 03:33N 52°34' E 004°05'62 5.7
2016-Nov-22 16:33N 53°31' E 004°50'6 5.9
2016-Nov-22 15:33N 53°33' E 004°59'6 5.7
2016-Nov-22 14:32N 53°35' E 005°08'6 5.8
2016-Nov-22 13:33N 53°36' E 005°17'16 5.4
2016-Nov-22 10:34N 53°42' E 005°43'6 6.1
2016-Nov-22 09:34N 53°44' E 005°52'7 6.8
2016-Nov-22 08:32N 53°46' E 006°03'65 7.2
2016-Nov-21 23:28N 54°01' E 007°51'16 8.5
2016-Nov-21 21:32N 53°60' E 008°19'31 7.9
2016-Nov-21 17:33N 53°56' E 009°12'23 7.5
2016-Nov-21 14:31N 54°13' E 009°36'7 7.4
2016-Nov-21 13:32N 54°19' E 009°43'7 7.4
2016-Nov-21 12:34N 54°21' E 009°55'7 7.5
2016-Nov-21 11:34N 54°22' E 010°08'1 0.9
2016-Nov-21 10:34N 54°22' E 010°09'17 8.5
2016-Nov-21 08:33N 54°33' E 010°31'10 9.9
2016-Nov-21 07:34N 54°35' E 010°48'18 9.2
2016-Nov-21 05:34N 54°34' E 011°19'9 9.1
2016-Nov-21 04:33N 54°30' E 011°34'18 8.9
2016-Nov-21 02:33N 54°26' E 012°04'68 7.5
2016-Nov-20 17:33N 54°43' E 013°57'9 8.9
2016-Nov-20 16:32N 54°40' E 014°13'20 9.1
2016-Nov-20 14:22N 54°39' E 014°47'8 9.1
2016-Nov-20 13:27N 54°41' E 015°01'  

Dump ship's entire track history